Matson, Missouri
Current Conditions -  °F | °C
As of 5:54 PM on Tuesday 25 Nov 2014 (Local Time) from KSUS Reporting Station
Clear Clear  
Wind Chill: 31°   Ceiling: Unl
Heat Index: 31°   Visibility: 10mi
Dew Point: 23°   Wind: 0mph
Humidity: 72%   Direction: NA
Pressure: 30.16"   Gusts: NA
Location:  38.6484°N, 90.8208°W
Report Text: KSUS 252354Z 00000KT 10SM CLR M01/M05 A3016 RMK AO2 SLP223 T10061050 10044 21006 53005
Loading
Personal Weather Stations






























Interactive Weather Map New forecast layout! Learn more

10-Day Weather Forecast

Advertisements
Track Severe Weather on mobile